Time;durP1;ratioP1;P1;durP2;ratioP2;P2;SDS_P1;SDS_P2;PMS_P1;PMS_P2;Temp;Humidity;BMP_temperature;BMP_pressure;BME280_temperature;BME280_humidity;BME280_pressure;Samples;Min_cycle;Max_cycle;Signal;HPM_P1;HPM_P2
2021/12/01 00:00:10;;;;;;;7.53;7.23;;;9.10;99.90;;;;;;5038246;28;20214;-66
2021/12/01 00:02:35;;;;;;;7.60;7.30;;;9.10;99.90;;;;;;5045086;28;20191;-68
2021/12/01 00:05:02;;;;;;;7.30;7.00;;;9.10;99.90;;;;;;5036849;28;20253;-67
2021/12/01 00:07:27;;;;;;;7.40;7.00;;;9.20;99.90;;;;;;5048007;28;20682;-66
2021/12/01 00:09:53;;;;;;;7.40;6.93;;;9.20;99.90;;;;;;5031731;28;20190;-66
2021/12/01 00:12:18;;;;;;;7.53;7.23;;;9.20;99.90;;;;;;5032149;28;20188;-66
2021/12/01 00:14:44;;;;;;;6.87;6.30;;;9.20;99.90;;;;;;5032855;28;20183;-67
2021/12/01 00:17:12;;;;;;;7.17;6.87;;;9.30;99.90;;;;;;5052335;28;20163;-67
2021/12/01 00:19:38;;;;;;;6.93;6.63;;;9.30;99.90;;;;;;5052090;28;20179;-67
2021/12/01 00:22:04;;;;;;;5.97;5.70;;;9.30;99.90;;;;;;5039770;28;20191;-66
2021/12/01 00:24:30;;;;;;;5.90;5.70;;;9.30;99.90;;;;;;5035956;28;20202;-66
2021/12/01 00:26:55;;;;;;;6.97;6.67;;;9.30;99.90;;;;;;5038400;28;20258;-65
2021/12/01 00:29:21;;;;;;;6.80;6.40;;;9.40;99.90;;;;;;5034028;28;20201;-66
2021/12/01 00:31:46;;;;;;;6.43;6.13;;;9.40;99.90;;;;;;5047077;28;20207;-68
2021/12/01 00:34:12;;;;;;;6.63;6.33;;;9.40;99.90;;;;;;5048088;28;20189;-66
2021/12/01 00:36:38;;;;;;;7.23;6.93;;;9.40;99.90;;;;;;5043562;28;20183;-66
2021/12/01 00:39:04;;;;;;;6.73;6.43;;;9.40;99.90;;;;;;5032619;28;20597;-66
2021/12/01 00:41:30;;;;;;;6.60;6.30;;;9.40;99.90;;;;;;5040843;28;20237;-67
2021/12/01 00:43:55;;;;;;;6.27;5.97;;;9.50;99.90;;;;;;5043366;28;20198;-67
2021/12/01 00:46:34;;;;;;;6.23;5.93;;;9.50;99.90;;;;;;5036171;28;20667;-66
2021/12/01 00:49:00;;;;;;;6.90;6.40;;;9.50;99.90;;;;;;5034214;28;20976;-67
2021/12/01 00:51:26;;;;;;;6.63;6.33;;;9.50;99.90;;;;;;5040579;28;20242;-67
2021/12/01 00:53:51;;;;;;;6.20;5.90;;;9.50;99.90;;;;;;5040206;28;20325;-67
2021/12/01 00:56:17;;;;;;;6.40;6.10;;;9.50;99.90;;;;;;5020607;28;20839;-65
2021/12/01 00:58:42;;;;;;;6.30;6.00;;;9.50;99.90;;;;;;5044495;28;20182;-66
2021/12/01 01:01:08;;;;;;;6.77;6.47;;;9.50;99.90;;;;;;5040887;28;20562;-67
2021/12/01 01:03:34;;;;;;;6.33;6.00;;;9.50;99.90;;;;;;5026990;28;20230;-67
2021/12/01 01:06:00;;;;;;;6.77;6.37;;;9.50;99.90;;;;;;5051564;28;20216;-66
2021/12/01 01:08:26;;;;;;;7.60;7.20;;;9.60;99.90;;;;;;5046796;28;20265;-67
2021/12/01 01:11:09;;;;;;;8.60;8.10;;;9.60;99.90;;;;;;5051468;28;20747;-66
2021/12/01 01:16:24;;;;;;;7.20;6.90;;;9.60;99.90;;;;;;5033099;28;20182;-67
2021/12/01 01:19:08;;;;;;;7.20;6.90;;;9.60;99.90;;;;;;5032961;28;20191;-65
2021/12/01 01:21:39;;;;;;;6.33;5.93;;;9.60;99.90;;;;;;5032059;28;20663;-67
2021/12/01 01:24:05;;;;;;;6.60;6.30;;;9.50;99.90;;;;;;5031225;28;20568;-66
2021/12/01 01:26:33;;;;;;;6.60;6.30;;;9.50;99.90;;;;;;5035285;28;20178;-66
2021/12/01 01:28:59;;;;;;;6.10;5.80;;;9.50;99.90;;;;;;5051361;28;20206;-66
2021/12/01 01:31:25;;;;;;;6.17;5.73;;;9.50;99.90;;;;;;5035989;28;20207;-66
2021/12/01 01:33:51;;;;;;;6.33;6.03;;;9.50;99.90;;;;;;5046090;28;20218;-67
2021/12/01 01:36:17;;;;;;;5.90;5.70;;;9.50;99.90;;;;;;5032575;28;20799;-65
2021/12/01 01:38:43;;;;;;;6.40;6.10;;;9.50;99.90;;;;;;5042365;28;20179;-66
2021/12/01 01:41:12;;;;;;;5.83;5.53;;;9.60;99.90;;;;;;5031334;28;20645;-66
2021/12/01 01:43:39;;;;;;;6.07;5.80;;;9.60;99.90;;;;;;5030594;28;20242;-66
2021/12/01 01:46:05;;;;;;;6.10;5.80;;;9.50;99.90;;;;;;5049142;28;20240;-67
2021/12/01 01:48:33;;;;;;;6.50;6.20;;;9.50;99.90;;;;;;5031835;28;20179;-67
2021/12/01 01:51:05;;;;;;;6.30;6.00;;;9.50;99.90;;;;;;5032115;28;20699;-68
2021/12/01 01:53:33;;;;;;;6.73;6.43;;;9.50;99.90;;;;;;5041268;28;20672;-66
2021/12/01 01:56:03;;;;;;;6.83;6.53;;;9.50;99.90;;;;;;5035154;28;20175;-66
2021/12/01 01:58:29;;;;;;;6.70;6.40;;;9.50;99.90;;;;;;5037130;28;20197;-67
2021/12/01 02:01:06;;;;;;;6.60;6.30;;;9.50;99.90;;;;;;5034876;28;20179;-67
2021/12/01 02:03:34;;;;;;;7.00;6.60;;;9.50;99.90;;;;;;5046881;28;20650;-67
2021/12/01 02:06:00;;;;;;;6.40;6.03;;;9.50;99.90;;;;;;5054806;28;20179;-66
2021/12/01 02:08:30;;;;;;;8.30;7.57;;;9.50;99.90;;;;;;5048864;28;20213;-67
2021/12/01 02:11:01;;;;;;;8.17;7.77;;;9.50;99.90;;;;;;5045559;28;20218;-67
2021/12/01 02:13:28;;;;;;;8.10;7.70;;;9.50;99.90;;;;;;5034257;28;20677;-67
2021/12/01 02:15:54;;;;;;;8.40;7.90;;;9.50;99.90;;;;;;5042358;28;20821;-67
2021/12/01 02:18:21;;;;;;;6.93;6.63;;;9.50;99.90;;;;;;5054523;28;20203;-67
2021/12/01 02:21:07;;;;;;;6.97;6.67;;;9.50;99.90;;;;;;5048053;28;20675;-67
2021/12/01 02:23:35;;;;;;;6.70;6.40;;;9.40;99.90;;;;;;5053524;28;20222;-67
2021/12/01 02:26:03;;;;;;;7.73;7.33;;;9.40;99.90;;;;;;5046712;28;20194;-68
2021/12/01 02:28:30;;;;;;;7.37;6.97;;;9.40;99.90;;;;;;5053351;28;20675;-68
2021/12/01 02:30:56;;;;;;;8.17;7.77;;;9.40;99.90;;;;;;5047943;28;20265;-69
2021/12/01 02:33:22;;;;;;;8.57;8.17;;;9.40;99.90;;;;;;5038389;28;20207;-67
2021/12/01 02:35:48;;;;;;;7.80;7.30;;;9.40;99.90;;;;;;5020489;28;20185;-66
2021/12/01 02:38:13;;;;;;;6.70;6.40;;;9.40;99.90;;;;;;5049350;28;20241;-66
2021/12/01 02:40:39;;;;;;;8.07;7.57;;;9.40;99.90;;;;;;5033564;28;20237;-66
2021/12/01 02:43:05;;;;;;;7.80;7.30;;;9.40;99.90;;;;;;5034987;28;20573;-66
2021/12/01 02:45:30;;;;;;;7.63;7.13;;;9.40;99.90;;;;;;5034285;28;20229;-66
2021/12/01 02:47:56;;;;;;;7.13;6.80;;;9.40;99.90;;;;;;5039101;28;20195;-66
2021/12/01 02:50:21;;;;;;;7.90;7.50;;;9.40;99.90;;;;;;5036249;28;20214;-65
2021/12/01 02:52:47;;;;;;;7.33;6.93;;;9.40;99.90;;;;;;5029086;28;20695;-66
2021/12/01 02:55:18;;;;;;;7.03;6.60;;;9.40;99.90;;;;;;5042254;28;20188;-66
2021/12/01 02:57:49;;;;;;;7.73;7.33;;;9.30;99.90;;;;;;5046493;28;20175;-66
2021/12/01 03:00:17;;;;;;;7.93;7.27;;;9.40;99.90;;;;;;5048377;28;20187;-66
2021/12/01 03:02:44;;;;;;;7.00;6.60;;;9.30;99.90;;;;;;5053213;28;20205;-67
2021/12/01 03:05:10;;;;;;;7.40;7.00;;;9.30;99.90;;;;;;5034304;28;20233;-66
2021/12/01 03:07:37;;;;;;;7.47;7.10;;;9.40;99.90;;;;;;5044672;28;20578;-67
2021/12/01 03:10:05;;;;;;;7.77;7.37;;;9.30;99.90;;;;;;5053548;28;20848;-67
2021/12/01 03:12:33;;;;;;;7.63;7.20;;;9.30;99.90;;;;;;5043321;28;20286;-67
2021/12/01 03:14:59;;;;;;;7.60;7.10;;;9.40;99.90;;;;;;5033672;28;20167;-67
2021/12/01 03:17:30;;;;;;;7.73;7.33;;;9.40;99.90;;;;;;5034595;28;20187;-67
2021/12/01 03:19:56;;;;;;;7.83;7.37;;;9.40;99.90;;;;;;5051573;28;20193;-67
2021/12/01 03:22:22;;;;;;;7.67;7.27;;;9.40;99.90;;;;;;5044447;28;20293;-67
2021/12/01 03:24:49;;;;;;;7.97;7.50;;;9.40;99.90;;;;;;5053358;28;20175;-67
2021/12/01 03:27:15;;;;;;;8.67;8.17;;;9.40;99.90;;;;;;5045073;28;20202;-67
2021/12/01 03:29:40;;;;;;;8.00;7.60;;;9.40;99.90;;;;;;5050350;28;20187;-67
2021/12/01 03:32:07;;;;;;;8.70;8.20;;;9.40;99.90;;;;;;5035500;28;20660;-67
2021/12/01 03:34:35;;;;;;;8.40;7.90;;;9.40;99.90;;;;;;5052162;28;20541;-67
2021/12/01 03:37:01;;;;;;;8.37;7.80;;;9.40;99.90;;;;;;5037695;28;20183;-67
2021/12/01 03:39:26;;;;;;;8.80;8.30;;;9.40;99.90;;;;;;5033285;28;20656;-66
2021/12/01 03:41:52;;;;;;;7.30;6.90;;;9.40;99.90;;;;;;5052163;28;20183;-66
2021/12/01 03:44:17;;;;;;;8.70;8.10;;;9.40;99.90;;;;;;5052240;28;20659;-67
2021/12/01 03:46:43;;;;;;;8.57;7.87;;;9.40;99.90;;;;;;5051812;28;20179;-67
2021/12/01 03:49:09;;;;;;;8.03;7.53;;;9.40;99.90;;;;;;5052831;28;20657;-67
2021/12/01 03:51:35;;;;;;;7.87;7.33;;;9.40;99.90;;;;;;5034917;28;20271;-66
2021/12/01 03:54:00;;;;;;;8.30;7.80;;;9.30;99.90;;;;;;5029621;28;20203;-67
2021/12/01 03:56:26;;;;;;;8.23;7.73;;;9.30;99.90;;;;;;5046752;28;20206;-66
2021/12/01 03:58:53;;;;;;;9.70;9.10;;;9.30;99.90;;;;;;5032191;28;20176;-66
2021/12/01 04:01:19;;;;;;;8.00;7.50;;;9.20;99.90;;;;;;5033912;28;20526;-66
2021/12/01 04:03:45;;;;;;;8.30;7.80;;;9.20;99.90;;;;;;5040389;28;20241;-67
2021/12/01 04:06:11;;;;;;;8.73;8.03;;;9.10;99.90;;;;;;5051173;28;20202;-66
2021/12/01 04:08:37;;;;;;;8.80;8.27;;;9.10;99.90;;;;;;5038254;28;20188;-66
2021/12/01 04:11:03;;;;;;;8.97;8.47;;;9.10;99.90;;;;;;5033279;28;20207;-66
2021/12/01 04:13:28;;;;;;;8.17;7.67;;;9.10;99.90;;;;;;5052095;28;20195;-66
2021/12/01 04:15:54;;;;;;;8.73;8.13;;;9.10;99.90;;;;;;5051892;28;20187;-66
2021/12/01 04:18:20;;;;;;;8.83;8.23;;;9.10;99.90;;;;;;5032926;28;20183;-66
2021/12/01 04:20:45;;;;;;;8.73;8.20;;;9.10;99.90;;;;;;5032732;28;20639;-66
2021/12/01 04:23:11;;;;;;;9.17;8.57;;;9.10;99.90;;;;;;5049419;28;20248;-66
2021/12/01 04:25:37;;;;;;;8.80;8.00;;;9.10;99.90;;;;;;5051984;28;20190;-67
2021/12/01 04:28:02;;;;;;;8.13;7.47;;;9.10;99.90;;;;;;5036131;28;20194;-67
2021/12/01 04:30:28;;;;;;;7.80;7.30;;;9.10;99.90;;;;;;5032114;28;20206;-68
2021/12/01 04:32:54;;;;;;;8.27;7.87;;;9.10;99.90;;;;;;5046880;28;20728;-67
2021/12/01 04:35:23;;;;;;;7.87;7.40;;;9.10;99.90;;;;;;5049406;28;20253;-68
2021/12/01 04:37:49;;;;;;;8.40;7.97;;;9.00;99.90;;;;;;5041272;28;20263;-67
2021/12/01 04:40:15;;;;;;;8.23;7.73;;;9.00;99.90;;;;;;5050726;28;20178;-68
2021/12/01 04:42:41;;;;;;;7.77;7.37;;;9.00;99.90;;;;;;5035316;28;20304;-68
2021/12/01 04:45:14;;;;;;;7.80;7.40;;;9.00;99.90;;;;;;5032759;28;20273;-67
2021/12/01 04:47:42;;;;;;;7.27;6.87;;;9.00;99.90;;;;;;5034047;28;20191;-67
2021/12/01 04:50:08;;;;;;;7.80;7.30;;;9.00;99.90;;;;;;5033301;28;20716;-66
2021/12/01 04:52:34;;;;;;;7.50;7.10;;;9.00;99.90;;;;;;5051355;28;20194;-66
2021/12/01 04:55:00;;;;;;;7.20;6.80;;;9.00;99.90;;;;;;5051693;28;20492;-66
2021/12/01 04:57:25;;;;;;;7.27;6.87;;;9.00;99.90;;;;;;5035554;28;20203;-67
2021/12/01 04:59:51;;;;;;;7.97;7.40;;;9.00;99.90;;;;;;5045832;28;20191;-68
2021/12/01 05:02:17;;;;;;;8.10;7.70;;;9.00;99.90;;;;;;5032512;28;20290;-67
2021/12/01 05:04:42;;;;;;;7.87;7.37;;;9.00;99.90;;;;;;5033819;28;20194;-67
2021/12/01 05:07:09;;;;;;;7.63;7.13;;;9.00;99.90;;;;;;5046682;28;20179;-68
2021/12/01 05:09:35;;;;;;;7.50;7.00;;;9.00;99.90;;;;;;5041621;28;20179;-67
2021/12/01 05:12:01;;;;;;;8.13;7.37;;;9.00;99.90;;;;;;5025498;28;20210;-67
2021/12/01 05:14:28;;;;;;;8.07;7.60;;;9.00;99.90;;;;;;5034053;28;20561;-66
2021/12/01 05:16:54;;;;;;;8.13;7.50;;;9.00;99.90;;;;;;5051479;28;20611;-68
2021/12/01 05:19:20;;;;;;;7.13;6.73;;;8.90;99.90;;;;;;5046026;28;20266;-68
2021/12/01 05:21:46;;;;;;;7.40;7.00;;;8.90;99.90;;;;;;5045626;28;20266;-66
2021/12/01 05:24:11;;;;;;;7.70;7.30;;;8.90;99.90;;;;;;5031133;28;20179;-67
2021/12/01 05:26:37;;;;;;;7.90;7.40;;;8.90;99.90;;;;;;5033537;28;20194;-66
2021/12/01 05:29:05;;;;;;;7.33;6.93;;;8.90;99.90;;;;;;5042136;28;20211;-67
2021/12/01 05:31:30;;;;;;;6.93;6.63;;;8.90;99.90;;;;;;5038176;28;20206;-66
2021/12/01 05:33:56;;;;;;;7.00;6.70;;;8.90;99.90;;;;;;5054653;28;20218;-67
2021/12/01 05:36:22;;;;;;;7.30;7.00;;;8.90;99.90;;;;;;5048502;28;20265;-67
2021/12/01 05:38:47;;;;;;;6.80;6.47;;;8.80;99.90;;;;;;5043703;28;20241;-67
2021/12/01 05:41:13;;;;;;;6.90;6.60;;;8.80;99.90;;;;;;5034058;28;20184;-65
2021/12/01 05:43:39;;;;;;;7.33;6.93;;;8.80;99.90;;;;;;5034631;28;20199;-64
2021/12/01 05:46:05;;;;;;;6.50;6.10;;;8.70;99.90;;;;;;5035633;28;20555;-65
2021/12/01 05:48:31;;;;;;;6.40;6.10;;;8.60;99.90;;;;;;5035181;28;20715;-66
2021/12/01 05:50:57;;;;;;;6.80;6.50;;;8.50;99.90;;;;;;5035061;28;20214;-65
2021/12/01 05:53:22;;;;;;;6.80;6.50;;;8.50;99.90;;;;;;5026748;28;20575;-68
2021/12/01 05:55:48;;;;;;;7.40;7.10;;;8.40;99.90;;;;;;5054743;28;20246;-66
2021/12/01 05:58:14;;;;;;;6.50;6.20;;;8.40;99.90;;;;;;5035553;28;20203;-66
2021/12/01 06:00:40;;;;;;;7.07;6.77;;;8.30;99.90;;;;;;5035649;28;20229;-66
2021/12/01 06:03:06;;;;;;;7.50;7.00;;;8.30;99.90;;;;;;5035376;28;20199;-67
2021/12/01 06:05:31;;;;;;;7.17;6.87;;;8.30;99.90;;;;;;5054922;28;20197;-67
2021/12/01 06:07:57;;;;;;;7.43;7.03;;;8.30;99.90;;;;;;5038896;28;20240;-66
2021/12/01 06:10:23;;;;;;;6.80;6.50;;;8.30;99.90;;;;;;5037332;28;20678;-67
2021/12/01 06:12:49;;;;;;;7.30;6.90;;;8.40;99.90;;;;;;5034451;28;20633;-67
2021/12/01 06:15:17;;;;;;;7.03;6.73;;;8.40;99.90;;;;;;5050011;28;20182;-66
2021/12/01 06:17:43;;;;;;;7.90;7.50;;;8.40;99.90;;;;;;5041233;28;20689;-66
2021/12/01 06:20:11;;;;;;;6.70;6.40;;;8.40;99.90;;;;;;5034710;28;20228;-66
2021/12/01 06:22:38;;;;;;;7.03;6.73;;;8.50;99.90;;;;;;5028319;28;20211;-67
2021/12/01 06:25:04;;;;;;;7.07;6.67;;;8.50;99.90;;;;;;5047482;28;20187;-66
2021/12/01 06:27:29;;;;;;;6.83;6.53;;;8.50;99.90;;;;;;5045741;28;20198;-67
2021/12/01 06:29:55;;;;;;;6.50;6.20;;;8.60;99.90;;;;;;5048848;28;20577;-67
2021/12/01 06:32:22;;;;;;;7.17;6.67;;;8.60;99.90;;;;;;5035646;28;20239;-67
2021/12/01 06:34:47;;;;;;;6.60;6.20;;;8.60;99.90;;;;;;5054242;28;20667;-67
2021/12/01 06:37:15;;;;;;;6.87;6.50;;;8.70;99.90;;;;;;5025145;28;20176;-67
2021/12/01 06:39:41;;;;;;;7.30;6.90;;;8.70;99.90;;;;;;5050300;28;20187;-66
2021/12/01 06:42:07;;;;;;;6.60;6.20;;;8.70;99.90;;;;;;5046741;28;20191;-67
2021/12/01 06:44:33;;;;;;;6.60;6.30;;;8.80;99.90;;;;;;5035573;28;20175;-66
2021/12/01 06:47:00;;;;;;;6.90;6.60;;;8.80;99.90;;;;;;5035408;28;20202;-67
2021/12/01 06:49:26;;;;;;;7.97;7.47;;;8.90;99.90;;;;;;5033884;28;20192;-66
2021/12/01 06:51:52;;;;;;;6.50;6.20;;;8.90;99.90;;;;;;5035647;28;20234;-67
2021/12/01 06:54:18;;;;;;;6.77;6.47;;;9.00;99.90;;;;;;5033695;28;20176;-66
2021/12/01 06:56:43;;;;;;;6.53;6.23;;;9.00;99.90;;;;;;5033978;28;20171;-66
2021/12/01 06:59:09;;;;;;;6.13;5.83;;;9.10;99.90;;;;;;5033958;28;20226;-66
2021/12/01 07:01:35;;;;;;;6.67;6.37;;;9.10;99.90;;;;;;5049445;28;20194;-67
2021/12/01 07:04:00;;;;;;;6.80;6.50;;;9.20;99.90;;;;;;5032237;28;20207;-66
2021/12/01 07:06:26;;;;;;;6.70;6.40;;;9.20;99.90;;;;;;5040890;28;20262;-66
2021/12/01 07:08:52;;;;;;;6.90;6.60;;;9.20;99.90;;;;;;5041676;28;20186;-66
2021/12/01 07:11:18;;;;;;;6.30;6.00;;;9.20;99.90;;;;;;5036983;28;20253;-66
2021/12/01 07:13:43;;;;;;;7.03;6.73;;;9.30;99.90;;;;;;5032766;28;20199;-66
2021/12/01 07:16:09;;;;;;;6.70;6.40;;;9.30;99.90;;;;;;5033290;28;20262;-67
2021/12/01 07:18:35;;;;;;;6.70;6.40;;;9.30;99.90;;;;;;5033161;28;20179;-67
2021/12/01 07:21:00;;;;;;;7.00;6.70;;;9.30;99.90;;;;;;5033631;28;20171;-66
2021/12/01 07:23:26;;;;;;;7.30;7.00;;;9.30;99.90;;;;;;5032797;28;20233;-66
2021/12/01 07:25:52;;;;;;;6.77;6.47;;;9.30;99.90;;;;;;5032830;28;20179;-67
2021/12/01 07:28:18;;;;;;;7.03;6.73;;;9.30;99.90;;;;;;5047178;28;20183;-66
2021/12/01 07:30:43;;;;;;;6.03;5.83;;;9.40;99.90;;;;;;5032749;28;20199;-66
2021/12/01 07:33:09;;;;;;;6.40;6.10;;;9.40;99.90;;;;;;5047731;28;20733;-66
2021/12/01 07:35:35;;;;;;;6.10;5.80;;;9.40;99.90;;;;;;5052886;28;20202;-66
2021/12/01 07:38:00;;;;;;;6.20;5.90;;;9.50;99.90;;;;;;5035807;28;20258;-66
2021/12/01 07:40:26;;;;;;;5.90;5.70;;;9.50;99.90;;;;;;5048342;28;20722;-66
2021/12/01 07:42:52;;;;;;;5.97;5.67;;;9.50;99.90;;;;;;5039116;28;20207;-66
2021/12/01 07:45:17;;;;;;;6.40;6.20;;;9.50;99.90;;;;;;5032343;28;20175;-66
2021/12/01 07:47:43;;;;;;;6.20;6.00;;;9.60;99.90;;;;;;5043074;28;20239;-68
2021/12/01 07:50:09;;;;;;;6.93;6.63;;;9.50;99.90;;;;;;5043364;28;20683;-65
2021/12/01 07:52:36;;;;;;;6.20;6.00;;;9.50;99.90;;;;;;5044540;28;20218;-66
2021/12/01 07:55:03;;;;;;;6.63;6.33;;;9.50;99.90;;;;;;5032532;28;20167;-66
2021/12/01 07:57:29;;;;;;;6.67;6.37;;;9.60;99.90;;;;;;5034499;28;20178;-66
2021/12/01 07:59:55;;;;;;;6.30;6.00;;;9.60;99.90;;;;;;5052068;28;20261;-66
2021/12/01 08:02:20;;;;;;;6.70;6.40;;;9.60;99.90;;;;;;5042300;28;20632;-66
2021/12/01 08:04:46;;;;;;;6.60;6.30;;;9.60;99.90;;;;;;5032293;28;20178;-66
2021/12/01 08:07:12;;;;;;;6.60;6.30;;;9.60;99.90;;;;;;5037090;28;20564;-66
2021/12/01 08:09:37;;;;;;;6.33;6.03;;;9.60;99.90;;;;;;5045024;28;20233;-66
2021/12/01 08:12:03;;;;;;;5.80;5.60;;;9.60;99.90;;;;;;5033880;28;20195;-67
2021/12/01 08:14:29;;;;;;;6.20;5.90;;;9.60;99.90;;;;;;5048752;28;20179;-67
2021/12/01 08:16:54;;;;;;;6.50;6.20;;;9.60;99.90;;;;;;5038233;28;20647;-66
2021/12/01 08:19:21;;;;;;;6.00;5.80;;;9.60;99.90;;;;;;5036182;28;20186;-66
2021/12/01 08:21:49;;;;;;;5.60;5.40;;;9.60;99.90;;;;;;5036765;28;20182;-65
2021/12/01 08:24:15;;;;;;;6.40;6.20;;;9.70;99.90;;;;;;5036076;28;20179;-66
2021/12/01 08:26:42;;;;;;;6.30;6.00;;;9.70;99.90;;;;;;5035687;28;20365;-65
2021/12/01 08:29:08;;;;;;;6.33;6.03;;;9.80;99.90;;;;;;5034165;28;20213;-65
2021/12/01 08:31:34;;;;;;;5.67;5.47;;;9.80;99.90;;;;;;5049127;28;20254;-66
2021/12/01 08:33:59;;;;;;;5.90;5.70;;;9.90;99.90;;;;;;5031796;28;20215;-68
2021/12/01 08:36:25;;;;;;;5.80;5.60;;;9.90;99.90;;;;;;5032985;28;20201;-67
2021/12/01 08:38:51;;;;;;;6.30;6.03;;;10.00;99.90;;;;;;5034879;28;20174;-67
2021/12/01 08:41:17;;;;;;;5.70;5.50;;;10.00;99.90;;;;;;5050986;28;20550;-67
2021/12/01 08:43:42;;;;;;;6.20;5.60;;;10.00;99.90;;;;;;5040923;28;20199;-66
2021/12/01 08:46:09;;;;;;;5.77;5.57;;;10.10;99.90;;;;;;5048161;28;20637;-67
2021/12/01 08:48:36;;;;;;;5.80;5.60;;;10.10;99.90;;;;;;5050393;28;20679;-66
2021/12/01 08:51:03;;;;;;;6.20;5.93;;;10.10;99.90;;;;;;5036406;28;20253;-67
2021/12/01 08:53:34;;;;;;;5.90;5.70;;;10.10;99.90;;;;;;5046128;28;20285;-67
2021/12/01 08:56:00;;;;;;;5.80;5.60;;;10.10;99.90;;;;;;5033473;28;20199;-67
2021/12/01 08:58:26;;;;;;;6.20;6.00;;;10.00;99.90;;;;;;5032761;28;20258;-67
2021/12/01 09:00:54;;;;;;;6.20;5.93;;;9.90;99.90;;;;;;5031388;28;20194;-67
2021/12/01 09:03:21;;;;;;;6.33;6.13;;;9.70;99.90;;;;;;5022716;28;20742;-67
2021/12/01 09:05:47;;;;;;;6.90;6.60;;;9.60;99.90;;;;;;5031086;28;20172;-68
2021/12/01 09:08:15;;;;;;;5.90;5.60;;;9.50;99.90;;;;;;5044921;28;20684;-68
2021/12/01 09:10:40;;;;;;;7.17;6.87;;;9.40;99.90;;;;;;5036878;28;20644;-67
2021/12/01 09:13:07;;;;;;;6.77;6.47;;;9.40;99.90;;;;;;5032016;28;20242;-67
2021/12/01 09:15:34;;;;;;;7.70;7.40;;;9.30;99.90;;;;;;5039347;28;20179;-68
2021/12/01 09:18:00;;;;;;;6.77;6.47;;;9.30;99.90;;;;;;5050632;28;20229;-66
2021/12/01 09:20:26;;;;;;;6.60;6.30;;;9.20;99.90;;;;;;5014116;28;20587;-67
2021/12/01 09:22:52;;;;;;;6.73;6.43;;;9.20;99.90;;;;;;5037563;28;20203;-68
2021/12/01 09:25:18;;;;;;;6.07;5.80;;;9.10;99.90;;;;;;5051235;28;20240;-66
2021/12/01 09:27:46;;;;;;;6.40;6.10;;;9.10;99.90;;;;;;5037420;28;20668;-66
2021/12/01 09:30:14;;;;;;;5.80;5.60;;;9.10;99.90;;;;;;5033194;28;20269;-66
2021/12/01 09:32:39;;;;;;;6.77;6.47;;;9.10;99.90;;;;;;5030569;28;20269;-66
2021/12/01 09:35:06;;;;;;;6.40;6.10;;;9.10;99.90;;;;;;5031153;28;20167;-66
2021/12/01 09:37:32;;;;;;;7.30;7.00;;;9.10;99.90;;;;;;5035976;28;20168;-66
2021/12/01 09:39:58;;;;;;;6.60;6.30;;;9.10;99.90;;;;;;5036880;28;20190;-66
2021/12/01 09:42:24;;;;;;;7.07;6.77;;;9.10;99.90;;;;;;5041828;28;20273;-66
2021/12/01 09:44:51;;;;;;;7.07;6.77;;;9.20;99.90;;;;;;5050210;28;20183;-66
2021/12/01 09:47:19;;;;;;;6.10;5.80;;;9.30;99.90;;;;;;5031051;28;20317;-66
2021/12/01 09:49:46;;;;;;;6.00;5.80;;;9.30;99.90;;;;;;5044525;28;20243;-66
2021/12/01 09:52:12;;;;;;;6.63;6.20;;;9.40;99.90;;;;;;5031756;28;20672;-66
2021/12/01 09:54:39;;;;;;;6.43;6.10;;;9.40;99.90;;;;;;5030776;28;20188;-66
2021/12/01 09:57:06;;;;;;;6.10;5.90;;;9.50;99.90;;;;;;5031411;28;20183;-66
2021/12/01 09:59:32;;;;;;;5.77;5.57;;;9.50;99.90;;;;;;5032137;28;20172;-66
2021/12/01 10:01:58;;;;;;;6.60;6.30;;;9.60;99.90;;;;;;5030267;28;20348;-66
2021/12/01 10:04:25;;;;;;;6.70;6.30;;;9.60;99.90;;;;;;5030646;28;20191;-66
2021/12/01 10:06:54;;;;;;;6.70;6.30;;;9.60;99.90;;;;;;5012928;28;20184;-66
2021/12/01 10:09:21;;;;;;;7.33;6.93;;;9.70;99.90;;;;;;5030798;28;20562;-66
2021/12/01 10:11:46;;;;;;;6.00;5.80;;;9.80;99.90;;;;;;5012629;28;20207;-66
2021/12/01 10:14:21;;;;;;;6.27;6.03;;;9.80;99.90;;;;;;5031777;28;20197;-66
2021/12/01 10:16:52;;;;;;;6.40;6.10;;;9.90;99.90;;;;;;5034351;28;20539;-67
2021/12/01 10:19:18;;;;;;;6.63;6.23;;;9.90;99.90;;;;;;5036728;28;20201;-67
2021/12/01 10:21:49;;;;;;;6.73;6.43;;;10.00;99.90;;;;;;5034318;28;20262;-66
2021/12/01 10:24:34;;;;;;;5.70;5.50;;;10.10;99.90;;;;;;5034113;28;20199;-66
2021/12/01 10:27:02;;;;;;;6.00;5.80;;;10.10;99.90;;;;;;5034172;28;20246;-66
2021/12/01 10:29:31;;;;;;;6.30;5.97;;;10.20;99.90;;;;;;5049464;28;20183;-66
2021/12/01 10:32:07;;;;;;;5.77;5.57;;;10.20;99.90;;;;;;5053192;28;20301;-66
2021/12/01 10:34:40;;;;;;;6.00;5.80;;;10.30;99.90;;;;;;5036147;28;20198;-66
2021/12/01 10:37:23;;;;;;;6.03;5.80;;;10.30;99.90;;;;;;5032816;28;20198;-65
2021/12/01 10:40:09;;;;;;;6.00;5.80;;;10.40;99.90;;;;;;5032526;28;20261;-64
2021/12/01 10:43:01;;;;;;;5.93;5.50;;;10.40;99.90;;;;;;5033475;28;20203;-65
2021/12/01 10:45:30;;;;;;;5.50;5.30;;;10.40;99.90;;;;;;5034133;28;20202;-64
2021/12/01 10:47:57;;;;;;;6.27;6.03;;;10.40;99.90;;;;;;5033486;28;20206;-64
2021/12/01 10:50:25;;;;;;;7.30;7.00;;;10.40;99.90;;;;;;5051514;28;20216;-64
2021/12/01 10:53:00;;;;;;;6.17;5.97;;;10.50;99.90;;;;;;5053195;28;20191;-64
2021/12/01 10:55:26;;;;;;;6.50;6.20;;;10.50;99.90;;;;;;5018546;28;20648;-65
2021/12/01 10:58:02;;;;;;;5.90;5.70;;;10.60;99.90;;;;;;5043173;28;20183;-64
2021/12/01 11:00:32;;;;;;;6.00;5.80;;;10.70;99.90;;;;;;5053797;28;20244;-65
2021/12/01 11:03:14;;;;;;;6.00;5.80;;;10.70;99.90;;;;;;5036471;28;20207;-66
2021/12/01 11:05:55;;;;;;;6.00;5.80;;;10.70;99.90;;;;;;5019325;28;20190;-66
2021/12/01 11:08:26;;;;;;;6.00;5.80;;;10.70;99.90;;;;;;5013795;28;20172;-66
2021/12/01 11:10:56;;;;;;;5.50;5.30;;;10.80;99.90;;;;;;5029841;28;20273;-66
2021/12/01 11:13:23;;;;;;;6.20;5.90;;;10.80;99.90;;;;;;5030838;28;20203;-66
2021/12/01 11:15:58;;;;;;;5.50;5.30;;;10.90;99.90;;;;;;5033537;28;20583;-66
2021/12/01 11:18:28;;;;;;;5.60;5.40;;;10.90;99.90;;;;;;5036516;28;20209;-66
2021/12/01 11:20:55;;;;;;;5.50;5.30;;;10.90;99.90;;;;;;5052998;28;20262;-66
2021/12/01 11:23:25;;;;;;;5.60;5.40;;;10.90;99.90;;;;;;5032174;28;20723;-66
2021/12/01 11:26:07;;;;;;;5.60;5.40;;;11.00;99.90;;;;;;5017580;28;20652;-66
2021/12/01 11:28:35;;;;;;;5.50;5.30;;;10.90;99.90;;;;;;5036867;28;20185;-66
2021/12/01 11:31:05;;;;;;;6.50;6.20;;;10.90;99.90;;;;;;5052762;28;20206;-66
2021/12/01 11:33:32;;;;;;;6.17;5.97;;;10.90;99.90;;;;;;5049468;28;20222;-66
2021/12/01 11:36:07;;;;;;;5.93;5.73;;;10.80;99.90;;;;;;5032794;28;20589;-66
2021/12/01 11:38:33;;;;;;;6.63;6.33;;;10.70;99.90;;;;;;5036654;28;20178;-66
2021/12/01 11:41:04;;;;;;;5.57;5.37;;;10.80;99.90;;;;;;5032767;28;20183;-66
2021/12/01 11:43:32;;;;;;;6.00;5.70;;;10.90;99.90;;;;;;5039152;28;20202;-66
2021/12/01 11:45:58;;;;;;;5.80;5.60;;;11.00;99.90;;;;;;5052308;28;20252;-66
2021/12/01 11:48:27;;;;;;;5.80;5.60;;;10.90;99.90;;;;;;5029280;28;20203;-66
2021/12/01 11:51:15;;;;;;;6.00;5.80;;;10.90;99.90;;;;;;5032588;28;20215;-66
2021/12/01 11:53:55;;;;;;;6.00;5.70;;;10.70;99.90;;;;;;5038557;28;20229;-66
2021/12/01 11:56:29;;;;;;;6.20;6.00;;;10.50;99.90;;;;;;5052832;28;20171;-66
2021/12/01 11:59:19;;;;;;;6.10;5.80;;;10.50;99.90;;;;;;5043892;28;20202;-66
2021/12/01 12:01:56;;;;;;;6.33;5.93;;;10.40;99.90;;;;;;5046123;28;20286;-66
2021/12/01 12:04:36;;;;;;;6.70;6.10;;;10.30;99.90;;;;;;5040961;28;20593;-66
2021/12/01 12:07:21;;;;;;;7.27;6.77;;;10.30;99.90;;;;;;5040842;28;20190;-67
2021/12/01 12:10:07;;;;;;;6.87;6.40;;;10.20;99.90;;;;;;5034237;28;20270;-66
2021/12/01 12:12:43;;;;;;;6.70;6.40;;;10.10;99.90;;;;;;5046957;28;20221;-66
2021/12/01 12:15:09;;;;;;;6.20;5.90;;;10.00;99.90;;;;;;5052212;28;20643;-66
2021/12/01 12:17:35;;;;;;;6.50;6.10;;;10.10;99.90;;;;;;5035427;28;20310;-66
2021/12/01 12:20:23;;;;;;;8.10;7.30;;;10.00;99.90;;;;;;5031891;28;20258;-66
2021/12/01 12:22:49;;;;;;;6.53;6.23;;;9.90;99.90;;;;;;5048989;28;20202;-66
2021/12/01 12:25:37;;;;;;;6.87;6.47;;;9.70;99.90;;;;;;5034184;28;20239;-66
2021/12/01 12:28:37;;;;;;;6.53;6.23;;;9.60;99.90;;;;;;5032594;28;20186;-68
2021/12/01 12:31:19;;;;;;;7.87;7.37;;;9.40;99.90;;;;;;5032905;28;20203;-67
2021/12/01 12:33:53;;;;;;;8.30;7.90;;;9.30;99.90;;;;;;5030360;28;20207;-67
2021/12/01 12:36:40;;;;;;;7.80;7.30;;;9.10;99.90;;;;;;5047922;28;20186;-68
2021/12/01 12:39:12;;;;;;;7.57;7.17;;;9.00;99.90;;;;;;5051804;28;20181;-66
2021/12/01 12:42:01;;;;;;;6.80;6.50;;;8.90;99.90;;;;;;5032505;28;20270;-66
2021/12/01 12:44:31;;;;;;;6.93;6.60;;;8.90;99.90;;;;;;5031628;28;20226;-66
2021/12/01 12:47:02;;;;;;;7.33;7.03;;;8.90;99.90;;;;;;5050952;28;20211;-66
2021/12/01 12:49:48;;;;;;;7.27;6.97;;;8.90;99.90;;;;;;5050672;28;20680;-66
2021/12/01 12:52:30;;;;;;;7.63;7.00;;;8.90;99.90;;;;;;5031223;28;20202;-66
2021/12/01 12:55:30;;;;;;;6.83;6.53;;;9.00;99.90;;;;;;5034025;28;20176;-66
2021/12/01 12:57:58;;;;;;;7.17;6.60;;;9.10;99.90;;;;;;5051026;28;20175;-66
2021/12/01 13:00:33;;;;;;;7.13;6.83;;;9.10;99.90;;;;;;5045589;28;20183;-66
2021/12/01 13:03:24;;;;;;;7.30;7.00;;;9.10;99.90;;;;;;5034214;28;20714;-66